createdAt,value
2022-09-09T00:02:23.470Z,16.60
2022-09-09T00:05:18.096Z,16.40
2022-09-09T00:07:54.526Z,16.60
2022-09-09T00:10:33.840Z,16.60
2022-09-09T00:13:04.115Z,16.60
2022-09-09T00:15:58.514Z,16.50
2022-09-09T00:18:49.050Z,16.50
2022-09-09T00:21:25.107Z,16.40
2022-09-09T00:23:55.535Z,16.50
2022-09-09T00:26:52.279Z,16.50
2022-09-09T00:30:10.415Z,16.50
2022-09-09T00:32:38.084Z,16.50
2022-09-09T00:35:35.138Z,16.40
2022-09-09T00:38:12.430Z,16.40
2022-09-09T00:41:08.870Z,16.40
2022-09-09T00:43:39.275Z,16.30
2022-09-09T00:46:35.549Z,16.30
2022-09-09T00:49:23.770Z,16.20
2022-09-09T00:52:16.623Z,16.20
2022-09-09T00:55:27.614Z,16.20
2022-09-09T00:57:57.705Z,16.10
2022-09-09T01:00:45.940Z,16.10
2022-09-09T01:03:40.955Z,16.10
2022-09-09T01:06:32.568Z,16.00
2022-09-09T01:09:20.997Z,16.10
2022-09-09T01:11:56.931Z,16.10
2022-09-09T01:14:37.860Z,16.00
2022-09-09T01:17:57.222Z,16.10
2022-09-09T01:20:56.206Z,16.10
2022-09-09T01:23:45.751Z,16.10
2022-09-09T01:26:35.972Z,16.10
2022-09-09T01:29:33.700Z,16.10
2022-09-09T01:32:47.927Z,16.10
2022-09-09T01:35:23.238Z,16.00
2022-09-09T01:37:52.440Z,16.00
2022-09-09T01:40:21.865Z,16.00
2022-09-09T01:43:01.697Z,16.00
2022-09-09T01:45:32.246Z,15.90
2022-09-09T01:48:04.843Z,15.90
2022-09-09T01:50:37.375Z,15.80
2022-09-09T01:53:08.733Z,15.80
2022-09-09T01:55:53.203Z,15.80
2022-09-09T01:58:48.914Z,15.70
2022-09-09T02:01:28.628Z,15.70
2022-09-09T02:03:59.013Z,15.60
2022-09-09T02:06:41.760Z,15.60
2022-09-09T02:09:13.463Z,15.50
2022-09-09T02:11:43.544Z,15.60
2022-09-09T02:14:18.059Z,15.50
2022-09-09T02:16:53.883Z,15.50
2022-09-09T02:19:38.470Z,15.50
2022-09-09T02:22:13.562Z,15.30
2022-09-09T02:24:41.909Z,15.50
2022-09-09T02:27:11.391Z,15.40
2022-09-09T02:29:44.194Z,15.40
2022-09-09T02:32:28.400Z,15.40
2022-09-09T02:35:03.878Z,15.40
2022-09-09T02:37:42.704Z,15.30
2022-09-09T02:40:16.391Z,15.30
2022-09-09T02:42:54.024Z,15.30
2022-09-09T02:45:34.596Z,15.20
2022-09-09T02:48:43.480Z,15.20
2022-09-09T02:51:29.319Z,15.20
2022-09-09T02:54:18.314Z,15.20
2022-09-09T02:57:01.226Z,15.10
2022-09-09T02:59:35.072Z,15.10
2022-09-09T03:02:05.935Z,15.10
2022-09-09T03:04:39.084Z,15.10
2022-09-09T03:07:08.798Z,15.10
2022-09-09T03:09:38.947Z,15.00
2022-09-09T03:12:10.208Z,15.00
2022-09-09T03:14:45.608Z,15.00
2022-09-09T03:17:16.936Z,15.00
2022-09-09T03:19:45.659Z,14.90
2022-09-09T03:22:17.697Z,15.00
2022-09-09T03:24:57.334Z,15.00
2022-09-09T03:27:29.430Z,14.90
2022-09-09T03:30:00.451Z,14.90
2022-09-09T03:32:30.862Z,14.80
2022-09-09T03:35:03.645Z,14.80
2022-09-09T03:37:31.475Z,14.70
2022-09-09T03:39:58.907Z,14.70
2022-09-09T03:42:29.941Z,14.80
2022-09-09T03:45:13.355Z,14.80
2022-09-09T03:47:43.342Z,14.70
2022-09-09T03:53:08.180Z,14.70
2022-09-09T03:55:51.506Z,14.70
2022-09-09T03:58:31.243Z,14.60
2022-09-09T04:01:04.203Z,14.60
2022-09-09T04:03:34.027Z,14.60
2022-09-09T04:06:11.841Z,14.60
2022-09-09T04:08:45.610Z,14.60
2022-09-09T04:11:15.860Z,14.60
2022-09-09T04:13:51.794Z,14.60
2022-09-09T04:16:24.523Z,14.60
2022-09-09T04:18:51.930Z,14.60
2022-09-09T04:21:19.202Z,14.60
2022-09-09T04:23:52.532Z,14.60
2022-09-09T04:26:24.274Z,14.60
2022-09-09T04:28:51.936Z,14.70
2022-09-09T04:31:24.141Z,14.60
2022-09-09T04:33:56.881Z,14.70
2022-09-09T04:36:24.493Z,14.70
2022-09-09T04:38:51.985Z,14.70
2022-09-09T04:41:23.948Z,14.70
2022-09-09T04:43:54.791Z,14.70
2022-09-09T04:46:28.709Z,14.70
2022-09-09T04:48:58.167Z,14.80
2022-09-09T04:51:33.348Z,14.80
2022-09-09T04:54:00.754Z,14.80
2022-09-09T04:56:37.942Z,14.80
2022-09-09T04:59:08.913Z,14.80
2022-09-09T05:01:48.320Z,14.70
2022-09-09T05:04:24.308Z,14.70
2022-09-09T05:06:56.015Z,14.70
2022-09-09T05:09:31.203Z,14.70
2022-09-09T05:11:59.463Z,14.80
2022-09-09T05:14:36.456Z,14.80
2022-09-09T05:17:52.431Z,14.80
2022-09-09T05:20:40.592Z,14.70
2022-09-09T05:23:12.316Z,14.80
2022-09-09T05:25:51.403Z,14.80
2022-09-09T05:28:21.419Z,14.80
2022-09-09T05:37:23.579Z,14.90
2022-09-09T05:45:48.555Z,14.90
2022-09-09T05:48:17.366Z,14.80
2022-09-09T05:50:53.509Z,14.90
2022-09-09T05:53:23.480Z,14.90
2022-09-09T05:56:05.590Z,15.00
2022-09-09T05:58:39.902Z,15.00
2022-09-09T06:01:55.729Z,15.10
2022-09-09T06:04:29.221Z,15.10
2022-09-09T06:07:24.502Z,15.20
2022-09-09T06:10:22.270Z,15.30
2022-09-09T06:13:07.311Z,15.30
2022-09-09T06:15:38.196Z,15.30
2022-09-09T06:18:17.235Z,15.40
2022-09-09T06:21:24.506Z,15.40
2022-09-09T06:24:01.268Z,15.40
2022-09-09T06:26:54.195Z,15.40
2022-09-09T06:29:24.785Z,15.50
2022-09-09T06:33:33.353Z,15.50
2022-09-09T06:35:32.638Z,15.60
2022-09-09T06:37:59.698Z,15.60
2022-09-09T06:40:26.495Z,15.60
2022-09-09T06:42:57.387Z,15.80
2022-09-09T06:45:24.210Z,15.90
2022-09-09T06:47:50.952Z,16.00
2022-09-09T06:50:17.726Z,16.20
2022-09-09T06:52:48.694Z,16.40
2022-09-09T06:55:16.886Z,16.60
2022-09-09T06:57:46.936Z,16.70
2022-09-09T07:00:17.693Z,16.80
2022-09-09T07:02:45.387Z,16.90
2022-09-09T07:05:12.405Z,17.20
2022-09-09T07:07:39.416Z,17.70
2022-09-09T07:10:06.676Z,18.20
2022-09-09T07:12:33.467Z,18.20
2022-09-09T07:15:00.362Z,18.30
2022-09-09T07:17:29.332Z,18.50
2022-09-09T07:19:56.651Z,18.70
2022-09-09T07:22:23.675Z,19.10
2022-09-09T07:24:50.689Z,19.50
2022-09-09T07:27:17.653Z,19.80
2022-09-09T07:29:44.414Z,20.00
2022-09-09T07:32:14.137Z,20.10
2022-09-09T07:34:41.078Z,19.90
2022-09-09T07:37:08.005Z,19.80
2022-09-09T07:39:35.049Z,19.70
2022-09-09T07:42:01.888Z,19.60
2022-09-09T07:44:33.367Z,19.60
2022-09-09T07:47:00.510Z,19.50
2022-09-09T07:49:31.055Z,19.50
2022-09-09T07:52:00.319Z,19.50
2022-09-09T07:54:27.370Z,19.50
2022-09-09T07:56:54.418Z,19.60
2022-09-09T07:59:21.419Z,19.60
2022-09-09T08:01:54.538Z,19.60
2022-09-09T08:04:22.877Z,19.70
2022-09-09T08:06:55.509Z,19.70
2022-09-09T08:09:26.085Z,19.70
2022-09-09T08:11:52.954Z,19.70
2022-09-09T08:14:20.010Z,19.70
2022-09-09T08:16:48.758Z,19.90
2022-09-09T08:19:18.934Z,20.00
2022-09-09T08:21:46.647Z,20.10
2022-09-09T08:24:18.703Z,20.00
2022-09-09T08:26:49.879Z,19.90
2022-09-09T08:29:18.399Z,19.80
2022-09-09T08:31:46.583Z,19.70
2022-09-09T08:34:13.535Z,19.60
2022-09-09T08:36:45.474Z,19.50
2022-09-09T08:39:15.744Z,19.50
2022-09-09T08:42:05.972Z,19.60
2022-09-09T08:44:35.586Z,19.70
2022-09-09T08:47:43.669Z,19.90
2022-09-09T08:50:18.032Z,20.00
2022-09-09T08:53:11.529Z,20.10
2022-09-09T08:55:49.393Z,20.20
2022-09-09T08:58:30.395Z,20.20
2022-09-09T09:01:09.257Z,20.10
2022-09-09T09:04:00.704Z,20.00
2022-09-09T09:06:37.768Z,19.90
2022-09-09T09:09:19.482Z,19.80
2022-09-09T09:12:01.799Z,19.60
2022-09-09T09:14:31.679Z,19.50
2022-09-09T09:17:07.341Z,19.30
2022-09-09T09:19:36.833Z,19.30
2022-09-09T09:22:21.071Z,19.20
2022-09-09T09:24:56.185Z,19.20
2022-09-09T09:27:41.281Z,19.20
2022-09-09T09:30:28.623Z,19.20
2022-09-09T09:32:56.411Z,19.30
2022-09-09T09:35:24.218Z,19.40
2022-09-09T09:40:49.741Z,19.40
2022-09-09T09:43:22.833Z,19.30
2022-09-09T09:46:07.278Z,19.40
2022-09-09T09:48:37.817Z,19.40
2022-09-09T09:51:11.678Z,19.50
2022-09-09T09:53:40.152Z,19.60
2022-09-09T09:56:09.816Z,19.70
2022-09-09T09:58:39.607Z,19.80
2022-09-09T10:01:07.374Z,19.90
2022-09-09T10:03:42.097Z,20.00
2022-09-09T10:06:08.821Z,20.00
2022-09-09T10:08:49.061Z,20.10
2022-09-09T10:11:38.674Z,20.10
2022-09-09T10:14:23.297Z,20.00
2022-09-09T10:17:11.183Z,19.90
2022-09-09T10:19:41.680Z,19.90
2022-09-09T10:22:28.847Z,19.80
2022-09-09T10:25:29.496Z,19.70
2022-09-09T10:28:43.025Z,19.80
2022-09-09T10:31:46.792Z,20.00
2022-09-09T10:34:37.953Z,20.40
2022-09-09T10:37:26.790Z,20.90
2022-09-09T10:40:16.477Z,21.00
2022-09-09T10:42:44.197Z,21.00
2022-09-09T10:45:35.659Z,21.00
2022-09-09T10:48:32.187Z,21.00
2022-09-09T10:51:21.661Z,20.80
2022-09-09T10:54:07.255Z,20.70
2022-09-09T10:56:35.752Z,20.50
2022-09-09T10:59:19.044Z,20.30
2022-09-09T11:02:10.809Z,20.20
2022-09-09T11:04:45.527Z,20.10
2022-09-09T11:07:22.169Z,20.00
2022-09-09T11:09:56.778Z,19.90
2022-09-09T11:12:25.946Z,19.70
2022-09-09T11:15:06.970Z,19.80
2022-09-09T11:17:53.560Z,19.90
2022-09-09T11:20:20.406Z,20.00
2022-09-09T11:23:16.574Z,20.10
2022-09-09T11:25:49.253Z,20.20
2022-09-09T11:28:48.571Z,20.20
2022-09-09T11:31:35.079Z,20.20
2022-09-09T11:34:26.371Z,20.10
2022-09-09T11:37:01.578Z,20.20
2022-09-09T11:39:31.291Z,20.30
2022-09-09T11:42:27.550Z,20.40
2022-09-09T11:44:56.028Z,20.50
2022-09-09T11:47:32.232Z,20.60
2022-09-09T11:50:32.984Z,20.70
2022-09-09T11:53:06.022Z,20.70
2022-09-09T11:55:35.702Z,20.80
2022-09-09T11:58:16.469Z,20.70
2022-09-09T12:00:48.744Z,20.50
2022-09-09T12:03:47.153Z,20.20
2022-09-09T12:06:34.473Z,20.10
2022-09-09T12:09:24.360Z,20.10
2022-09-09T12:11:51.822Z,20.20
2022-09-09T12:14:39.940Z,20.40
2022-09-09T12:17:15.755Z,20.70
2022-09-09T12:19:43.190Z,20.80
2022-09-09T12:22:22.996Z,20.90
2022-09-09T12:24:54.299Z,20.90
2022-09-09T12:27:41.842Z,21.00
2022-09-09T12:30:18.933Z,21.10
2022-09-09T12:32:45.849Z,20.90
2022-09-09T12:35:23.307Z,20.80
2022-09-09T12:38:24.782Z,20.70
2022-09-09T12:40:58.897Z,20.60
2022-09-09T12:43:28.001Z,20.50
2022-09-09T12:46:09.697Z,20.50
2022-09-09T12:48:41.350Z,20.60
2022-09-09T12:51:25.041Z,20.50
2022-09-09T12:53:53.354Z,20.50
2022-09-09T12:56:34.490Z,20.50
2022-09-09T12:59:02.201Z,20.60
2022-09-09T13:01:37.060Z,20.60
2022-09-09T13:04:05.260Z,20.70
2022-09-09T13:06:33.595Z,20.60
2022-09-09T13:09:02.590Z,20.60
2022-09-09T13:11:39.317Z,20.70
2022-09-09T13:14:07.503Z,20.90
2022-09-09T13:16:40.469Z,20.90
2022-09-09T13:19:17.462Z,21.00
2022-09-09T13:21:44.664Z,21.10
2022-09-09T13:24:33.675Z,21.20
2022-09-09T13:27:03.906Z,21.20
2022-09-09T13:29:32.640Z,21.10
2022-09-09T13:32:07.456Z,21.10
2022-09-09T13:34:37.611Z,21.10
2022-09-09T13:37:07.029Z,21.30
2022-09-09T13:39:36.894Z,21.20
2022-09-09T13:42:04.815Z,21.20
2022-09-09T13:44:37.882Z,21.10
2022-09-09T13:47:10.283Z,21.10
2022-09-09T13:49:37.543Z,21.00
2022-09-09T13:52:12.890Z,20.90
2022-09-09T13:54:40.699Z,20.80
2022-09-09T13:57:22.427Z,20.70
2022-09-09T14:00:06.518Z,20.50
2022-09-09T14:02:34.852Z,20.40
2022-09-09T14:05:01.950Z,20.40
2022-09-09T14:07:29.001Z,20.40
2022-09-09T14:09:55.712Z,20.40
2022-09-09T14:12:22.861Z,20.40
2022-09-09T14:14:50.774Z,20.40
2022-09-09T14:17:18.284Z,20.40
2022-09-09T14:19:46.979Z,20.30
2022-09-09T14:22:13.684Z,20.20
2022-09-09T14:24:43.016Z,20.30
2022-09-09T14:27:09.756Z,20.30
2022-09-09T14:29:36.434Z,20.40
2022-09-09T14:32:03.891Z,20.40
2022-09-09T14:34:31.332Z,20.40
2022-09-09T14:36:58.013Z,20.50
2022-09-09T14:39:25.233Z,20.50
2022-09-09T14:41:54.524Z,20.70
2022-09-09T14:44:21.195Z,20.80
2022-09-09T14:46:47.878Z,20.90
2022-09-09T14:49:14.664Z,20.90
2022-09-09T14:51:41.343Z,21.00
2022-09-09T14:54:08.047Z,21.00
2022-09-09T14:56:35.726Z,21.00
2022-09-09T14:59:03.660Z,21.00
2022-09-09T15:01:32.730Z,20.90
2022-09-09T15:04:01.945Z,21.00
2022-09-09T15:06:31.223Z,21.00
2022-09-09T15:09:01.492Z,21.00
2022-09-09T15:11:35.467Z,21.10
2022-09-09T15:14:02.753Z,21.20
2022-09-09T15:16:29.725Z,21.20
2022-09-09T15:18:58.427Z,21.30
2022-09-09T15:21:31.357Z,21.30
2022-09-09T15:23:58.915Z,21.20
2022-09-09T15:26:26.862Z,21.20
2022-09-09T15:28:53.949Z,21.20
2022-09-09T15:31:26.560Z,21.30
2022-09-09T15:34:07.773Z,21.20
2022-09-09T15:36:47.002Z,21.20
2022-09-09T15:39:19.349Z,21.20
2022-09-09T15:41:48.038Z,21.10
2022-09-09T15:44:16.635Z,21.10
2022-09-09T15:46:52.478Z,21.10
2022-09-09T15:49:27.366Z,20.90
2022-09-09T15:51:59.414Z,20.90
2022-09-09T15:54:27.288Z,20.80
2022-09-09T15:57:00.900Z,20.70
2022-09-09T15:59:29.821Z,20.70
2022-09-09T16:01:57.677Z,20.70
2022-09-09T16:04:25.745Z,20.60
2022-09-09T16:06:59.839Z,20.60
2022-09-09T16:09:27.785Z,20.70
2022-09-09T16:11:57.914Z,20.70
2022-09-09T16:14:25.844Z,20.80
2022-09-09T16:16:53.301Z,20.80
2022-09-09T16:19:21.004Z,20.80
2022-09-09T16:21:49.662Z,20.80
2022-09-09T16:24:19.251Z,20.80
2022-09-09T16:26:49.252Z,20.90
2022-09-09T16:29:18.404Z,20.80
2022-09-09T16:31:46.553Z,20.70
2022-09-09T16:34:14.003Z,20.60
2022-09-09T16:36:42.104Z,20.60
2022-09-09T16:39:15.202Z,20.60
2022-09-09T16:41:43.162Z,20.60
2022-09-09T16:44:11.749Z,20.60
2022-09-09T16:46:41.558Z,20.40
2022-09-09T16:49:11.181Z,20.40
2022-09-09T16:51:49.494Z,20.30
2022-09-09T16:54:18.043Z,20.40
2022-09-09T16:56:46.776Z,20.40
2022-09-09T16:59:16.153Z,20.30
2022-09-09T17:01:44.686Z,20.40
2022-09-09T17:04:21.416Z,20.40
2022-09-09T17:06:53.175Z,20.40
2022-09-09T17:09:21.335Z,20.30
2022-09-09T17:11:49.176Z,20.30
2022-09-09T17:14:18.307Z,20.30
2022-09-09T17:16:45.851Z,20.40
2022-09-09T17:19:13.619Z,20.10
2022-09-09T17:22:00.061Z,20.20
2022-09-09T17:24:30.513Z,20.10
2022-09-09T17:26:58.417Z,20.10
2022-09-09T17:29:26.053Z,20.00
2022-09-09T17:31:53.214Z,20.00
2022-09-09T17:34:19.931Z,20.00
2022-09-09T17:36:46.665Z,19.90
2022-09-09T17:39:13.436Z,19.80
2022-09-09T17:41:40.842Z,19.80
2022-09-09T17:46:42.552Z,19.60
2022-09-09T17:49:13.051Z,19.50
2022-09-09T17:51:42.567Z,19.50
2022-09-09T17:54:18.388Z,19.40
2022-09-09T17:56:46.419Z,19.30
2022-09-09T17:59:14.665Z,19.30
2022-09-09T18:01:45.095Z,19.30
2022-09-09T18:04:16.140Z,19.20
2022-09-09T18:06:45.469Z,19.10
2022-09-09T18:09:15.180Z,18.90
2022-09-09T18:11:45.538Z,19.00
2022-09-09T18:14:15.637Z,18.80
2022-09-09T18:16:42.839Z,18.80
2022-09-09T18:19:13.841Z,18.70
2022-09-09T18:21:42.626Z,18.60
2022-09-09T18:24:11.640Z,18.60
2022-09-09T18:26:39.925Z,18.50
2022-09-09T18:29:11.515Z,18.60
2022-09-09T18:31:38.591Z,18.50
2022-09-09T18:34:08.132Z,18.40
2022-09-09T18:36:44.504Z,18.30
2022-09-09T18:39:13.771Z,18.30
2022-09-09T18:41:44.066Z,18.20
2022-09-09T18:44:14.754Z,18.30
2022-09-09T18:46:41.580Z,18.20
2022-09-09T18:49:08.821Z,18.20
2022-09-09T18:51:37.201Z,18.20
2022-09-09T18:54:11.435Z,18.10
2022-09-09T18:56:39.259Z,18.10
2022-09-09T18:59:08.318Z,18.00
2022-09-09T19:01:38.858Z,18.10
2022-09-09T19:04:07.686Z,18.00
2022-09-09T19:06:39.177Z,18.00
2022-09-09T19:09:06.236Z,18.00
2022-09-09T19:11:33.669Z,18.00
2022-09-09T19:14:03.217Z,18.00
2022-09-09T19:16:32.397Z,18.00
2022-09-09T19:19:12.650Z,18.00
2022-09-09T19:21:41.205Z,17.90
2022-09-09T19:24:11.698Z,17.90
2022-09-09T19:26:41.865Z,17.90
2022-09-09T19:29:16.929Z,17.80
2022-09-09T19:32:02.010Z,17.80
2022-09-09T19:34:32.183Z,17.80
2022-09-09T19:37:00.306Z,17.70
2022-09-09T19:39:27.231Z,17.70
2022-09-09T19:41:54.857Z,17.70
2022-09-09T19:44:22.684Z,17.70
2022-09-09T19:46:50.159Z,17.70
2022-09-09T19:49:17.711Z,17.70
2022-09-09T19:51:44.789Z,17.70
2022-09-09T19:54:14.173Z,17.80
2022-09-09T19:56:42.804Z,17.70
2022-09-09T19:59:11.793Z,17.60
2022-09-09T20:01:44.932Z,17.60
2022-09-09T20:04:13.080Z,17.60
2022-09-09T20:06:41.978Z,17.60
2022-09-09T20:09:14.628Z,17.60
2022-09-09T20:11:43.244Z,17.60
2022-09-09T20:14:11.749Z,17.40
2022-09-09T20:16:39.540Z,17.40
2022-09-09T20:19:10.354Z,17.40
2022-09-09T20:21:44.022Z,17.40
2022-09-09T20:24:15.201Z,17.30
2022-09-09T20:26:42.137Z,17.30
2022-09-09T20:29:15.967Z,17.30
2022-09-09T20:31:44.551Z,17.30
2022-09-09T20:34:19.307Z,17.20
2022-09-09T20:36:47.131Z,17.20
2022-09-09T20:39:16.294Z,17.10
2022-09-09T20:41:44.655Z,17.10
2022-09-09T20:44:17.258Z,17.10
2022-09-09T20:46:49.196Z,17.00
2022-09-09T20:49:18.783Z,16.90
2022-09-09T20:51:46.658Z,16.80
2022-09-09T20:54:17.074Z,16.80
2022-09-09T20:56:45.599Z,16.70
2022-09-09T20:59:21.705Z,16.70
2022-09-09T21:01:49.264Z,16.70
2022-09-09T21:04:20.577Z,16.70
2022-09-09T21:06:51.913Z,16.60
2022-09-09T21:09:19.549Z,16.70
2022-09-09T21:11:47.312Z,16.70
2022-09-09T21:14:14.866Z,16.70
2022-09-09T21:16:41.829Z,16.70
2022-09-09T21:19:09.643Z,16.70
2022-09-09T21:21:40.259Z,16.70
2022-09-09T21:24:07.161Z,16.60
2022-09-09T21:26:35.695Z,16.70
2022-09-09T21:29:02.722Z,16.60
2022-09-09T21:31:29.746Z,16.80
2022-09-09T21:33:57.821Z,16.60
2022-09-09T21:36:27.252Z,16.60
2022-09-09T21:38:54.249Z,16.70
2022-09-09T21:41:21.621Z,16.60
2022-09-09T21:43:52.918Z,16.60
2022-09-09T21:46:20.656Z,16.70
2022-09-09T21:48:47.603Z,16.70
2022-09-09T21:51:16.283Z,16.70
2022-09-09T21:53:43.605Z,16.70
2022-09-09T21:56:15.858Z,16.70
2022-09-09T21:58:43.018Z,16.70
2022-09-09T22:01:15.641Z,16.60
2022-09-09T22:03:42.778Z,16.70
2022-09-09T22:06:13.609Z,16.60
2022-09-09T22:08:40.830Z,16.60
2022-09-09T22:11:14.166Z,16.60
2022-09-09T22:13:42.680Z,16.50
2022-09-09T22:16:12.511Z,16.50
2022-09-09T22:18:40.231Z,16.50
2022-09-09T22:21:16.727Z,16.40
2022-09-09T22:23:43.725Z,16.40
2022-09-09T22:26:11.198Z,16.40
2022-09-09T22:28:38.914Z,16.30
2022-09-09T22:31:12.145Z,16.30
2022-09-09T22:33:39.076Z,16.30
2022-09-09T22:36:06.092Z,16.20
2022-09-09T22:38:35.399Z,16.20
2022-09-09T22:41:03.526Z,16.10
2022-09-09T22:43:33.109Z,16.10
2022-09-09T22:46:01.409Z,16.10
2022-09-09T22:48:35.565Z,16.10
2022-09-09T22:51:11.208Z,16.10
2022-09-09T22:53:43.133Z,16.10
2022-09-09T22:56:14.950Z,16.10
2022-09-09T22:58:41.786Z,16.20
2022-09-09T23:01:15.600Z,16.10
2022-09-09T23:03:46.264Z,16.00
2022-09-09T23:06:22.977Z,16.10
2022-09-09T23:08:53.414Z,16.10
2022-09-09T23:11:21.566Z,16.20
2022-09-09T23:13:53.165Z,16.20
2022-09-09T23:16:27.420Z,16.20
2022-09-09T23:18:57.901Z,16.20
2022-09-09T23:21:28.308Z,16.20
2022-09-09T23:23:56.982Z,16.10
2022-09-09T23:26:26.366Z,16.10
2022-09-09T23:28:58.521Z,16.10
2022-09-09T23:31:28.119Z,16.10
2022-09-09T23:33:55.376Z,16.10
2022-09-09T23:36:24.909Z,16.10
2022-09-09T23:38:51.999Z,16.10
2022-09-09T23:41:21.296Z,16.10
2022-09-09T23:43:53.175Z,16.00
2022-09-09T23:46:23.091Z,16.00
2022-09-09T23:48:53.045Z,15.90
2022-09-09T23:51:24.145Z,15.90
2022-09-09T23:53:53.776Z,15.90
2022-09-09T23:56:22.482Z,15.90
2022-09-09T23:58:50.292Z,15.90
